N996A KFFA-KMRH
Flight info
| Callsign | N996A |
|---|---|
| Flight time | 0h 45m |
| Altitude | 4500 |
| Route | JUNIR |
| Aircraft | BE35/L-SDFGRY/S |
Departure
| Time | 2026-05-08 00:20 |
|---|---|
| Airport | First Flight Airport (KFFA) |
Arrival
| Time | 2026-05-08 01:05 |
|---|---|
| Airport | Michael J. Smith Field (KMRH) |
| Time | Latitude | Longitude | Altitude | Speed | Heading |
|---|---|---|---|---|---|
| 2026-05-08 00:08 | 36.01410 | -75.67170 | 18 ft | 0 kts | 14° |
| 2026-05-08 00:16 | 36.01416 | -75.67170 | 18 ft | 4 kts | 344° |
| 2026-05-08 00:17 | 36.01402 | -75.67215 | 18 ft | 11 kts | 210° |
| 2026-05-08 00:17 | 36.01388 | -75.67225 | 18 ft | 0 kts | 211° |
| 2026-05-08 00:18 | 36.01385 | -75.67228 | 18 ft | 3 kts | 210° |
| 2026-05-08 00:18 | 36.01384 | -75.67229 | 18 ft | 1 kts | 209° |
| 2026-05-08 00:19 | 36.01372 | -75.67284 | 16 ft | 9 kts | 327° |
| 2026-05-08 00:19 | 36.01383 | -75.67285 | 16 ft | 0 kts | 13° |
| 2026-05-08 00:19 | 36.01389 | -75.67284 | 16 ft | 8 kts | 13° |
| 2026-05-08 00:19 | 36.01628 | -75.67204 | 20 ft | 62 kts | 14° |
| 2026-05-08 00:20 | 36.02081 | -75.67020 | 247 ft | 72 kts | 18° |
| 2026-05-08 00:20 | 36.02560 | -75.66895 | 631 ft | 70 kts | 338° |
| 2026-05-08 00:20 | 36.02831 | -75.67467 | 1016 ft | 95 kts | 283° |
| 2026-05-08 00:20 | 36.02448 | -75.68340 | 1070 ft | 140 kts | 230° |
| 2026-05-08 00:21 | 36.01511 | -75.68931 | 1262 ft | 155 kts | 200° |
| 2026-05-08 00:21 | 36.00517 | -75.69262 | 1715 ft | 142 kts | 188° |
| 2026-05-08 00:21 | 35.99574 | -75.69480 | 2078 ft | 138 kts | 192° |
| 2026-05-08 00:21 | 35.98620 | -75.69781 | 2294 ft | 146 kts | 190° |
| 2026-05-08 00:22 | 35.97610 | -75.69989 | 2520 ft | 147 kts | 208° |
| 2026-05-08 00:22 | 35.96791 | -75.70714 | 2758 ft | 145 kts | 229° |
| 2026-05-08 00:22 | 35.96036 | -75.71507 | 3021 ft | 139 kts | 229° |
| 2026-05-08 00:22 | 35.95314 | -75.72265 | 3277 ft | 133 kts | 227° |
| 2026-05-08 00:23 | 35.94615 | -75.72974 | 3515 ft | 126 kts | 227° |
| 2026-05-08 00:23 | 35.93952 | -75.73631 | 3737 ft | 121 kts | 228° |
| 2026-05-08 00:23 | 35.93296 | -75.74266 | 3968 ft | 118 kts | 225° |
| 2026-05-08 00:23 | 35.92625 | -75.74834 | 4203 ft | 116 kts | 223° |
| 2026-05-08 00:24 | 35.91946 | -75.75382 | 4336 ft | 119 kts | 224° |
| 2026-05-08 00:24 | 35.91241 | -75.75984 | 4389 ft | 127 kts | 224° |
| 2026-05-08 00:24 | 35.90488 | -75.76617 | 4407 ft | 134 kts | 223° |
| 2026-05-08 00:24 | 35.89706 | -75.77267 | 4404 ft | 136 kts | 223° |
| 2026-05-08 00:25 | 35.88920 | -75.77915 | 4407 ft | 136 kts | 223° |
| 2026-05-08 00:25 | 35.88139 | -75.78566 | 4423 ft | 136 kts | 224° |
| 2026-05-08 00:25 | 35.87355 | -75.79232 | 4431 ft | 137 kts | 223° |
| 2026-05-08 00:25 | 35.86585 | -75.79870 | 4527 ft | 133 kts | 223° |
| 2026-05-08 00:26 | 35.85832 | -75.80495 | 4637 ft | 128 kts | 224° |
| 2026-05-08 00:26 | 35.85101 | -75.81108 | 4757 ft | 126 kts | 224° |
| 2026-05-08 00:26 | 35.84384 | -75.81710 | 4873 ft | 124 kts | 224° |
| 2026-05-08 00:26 | 35.83676 | -75.82303 | 4997 ft | 122 kts | 224° |
| 2026-05-08 00:27 | 35.82975 | -75.82888 | 5119 ft | 121 kts | 224° |
| 2026-05-08 00:27 | 35.82278 | -75.83469 | 5240 ft | 120 kts | 224° |
| 2026-05-08 00:27 | 35.81585 | -75.84047 | 5366 ft | 120 kts | 225° |
| 2026-05-08 00:27 | 35.80895 | -75.84623 | 5492 ft | 120 kts | 225° |
| 2026-05-08 00:28 | 35.80207 | -75.85199 | 5614 ft | 119 kts | 225° |
| 2026-05-08 00:28 | 35.79520 | -75.85771 | 5739 ft | 119 kts | 225° |
| 2026-05-08 00:28 | 35.78839 | -75.86340 | 5873 ft | 118 kts | 225° |
| 2026-05-08 00:28 | 35.78163 | -75.86903 | 5987 ft | 117 kts | 225° |
| 2026-05-08 00:29 | 35.77495 | -75.87459 | 6113 ft | 115 kts | 225° |
| 2026-05-08 00:29 | 35.76836 | -75.88009 | 6239 ft | 114 kts | 225° |
| 2026-05-08 00:29 | 35.76176 | -75.88560 | 6324 ft | 116 kts | 225° |
| 2026-05-08 00:29 | 35.75499 | -75.89127 | 6363 ft | 120 kts | 225° |
| 2026-05-08 00:30 | 35.74809 | -75.89702 | 6381 ft | 123 kts | 225° |
| 2026-05-08 00:30 | 35.74092 | -75.90296 | 6391 ft | 125 kts | 225° |
| 2026-05-08 00:30 | 35.73365 | -75.90901 | 6396 ft | 127 kts | 225° |
| 2026-05-08 00:30 | 35.72629 | -75.91514 | 6399 ft | 128 kts | 224° |
| 2026-05-08 00:31 | 35.71887 | -75.92132 | 6398 ft | 129 kts | 224° |
| 2026-05-08 00:31 | 35.71138 | -75.92754 | 6391 ft | 130 kts | 224° |
| 2026-05-08 00:31 | 35.70389 | -75.93376 | 6395 ft | 130 kts | 224° |
| 2026-05-08 00:31 | 35.69636 | -75.94003 | 6396 ft | 130 kts | 224° |
| 2026-05-08 00:32 | 35.68883 | -75.94628 | 6399 ft | 130 kts | 224° |
| 2026-05-08 00:32 | 35.68132 | -75.95254 | 6399 ft | 131 kts | 224° |
| 2026-05-08 00:32 | 35.67387 | -75.95872 | 6391 ft | 131 kts | 224° |
| 2026-05-08 00:32 | 35.66631 | -75.96501 | 6396 ft | 131 kts | 224° |
| 2026-05-08 00:33 | 35.65875 | -75.97128 | 6395 ft | 131 kts | 224° |
| 2026-05-08 00:33 | 35.65121 | -75.97755 | 6393 ft | 131 kts | 224° |
| 2026-05-08 00:33 | 35.64368 | -75.98380 | 6393 ft | 130 kts | 224° |
| 2026-05-08 00:33 | 35.63618 | -75.99002 | 6395 ft | 130 kts | 224° |
| 2026-05-08 00:34 | 35.62868 | -75.99624 | 6399 ft | 131 kts | 224° |
| 2026-05-08 00:34 | 35.62114 | -76.00251 | 6400 ft | 131 kts | 224° |
| 2026-05-08 00:34 | 35.61355 | -76.00880 | 6397 ft | 132 kts | 224° |
| 2026-05-08 00:34 | 35.60595 | -76.01510 | 6395 ft | 132 kts | 224° |
| 2026-05-08 00:35 | 35.59836 | -76.02139 | 6395 ft | 131 kts | 224° |
| 2026-05-08 00:35 | 35.59079 | -76.02766 | 6395 ft | 131 kts | 224° |
| 2026-05-08 00:35 | 35.58325 | -76.03393 | 6394 ft | 131 kts | 224° |
| 2026-05-08 00:35 | 35.57571 | -76.04019 | 6392 ft | 131 kts | 224° |
| 2026-05-08 00:36 | 35.56816 | -76.04641 | 6391 ft | 131 kts | 224° |
| 2026-05-08 00:36 | 35.56063 | -76.05264 | 6392 ft | 131 kts | 224° |
| 2026-05-08 00:36 | 35.55311 | -76.05889 | 6392 ft | 131 kts | 224° |
| 2026-05-08 00:36 | 35.54556 | -76.06515 | 6394 ft | 131 kts | 224° |
| 2026-05-08 00:37 | 35.53801 | -76.07140 | 6391 ft | 131 kts | 224° |
| 2026-05-08 00:37 | 35.53048 | -76.07761 | 6393 ft | 130 kts | 224° |
| 2026-05-08 00:37 | 35.52297 | -76.08381 | 6394 ft | 130 kts | 224° |
| 2026-05-08 00:38 | 35.50805 | -76.09619 | 6399 ft | 131 kts | 224° |
| 2026-05-08 00:38 | 35.50046 | -76.10244 | 6398 ft | 131 kts | 224° |
| 2026-05-08 00:38 | 35.49288 | -76.10870 | 6395 ft | 131 kts | 224° |
| 2026-05-08 00:38 | 35.48531 | -76.11494 | 6395 ft | 131 kts | 224° |
| 2026-05-08 00:39 | 35.47779 | -76.12116 | 6396 ft | 130 kts | 224° |
| 2026-05-08 00:39 | 35.47027 | -76.12739 | 6397 ft | 130 kts | 224° |
| 2026-05-08 00:39 | 35.46273 | -76.13363 | 6397 ft | 131 kts | 224° |
| 2026-05-08 00:39 | 35.45516 | -76.13985 | 6396 ft | 131 kts | 224° |
| 2026-05-08 00:40 | 35.44761 | -76.14609 | 6388 ft | 131 kts | 224° |
| 2026-05-08 00:40 | 35.44008 | -76.15232 | 6381 ft | 130 kts | 224° |
| 2026-05-08 00:40 | 35.43262 | -76.15845 | 6387 ft | 128 kts | 224° |
| 2026-05-08 00:40 | 35.42523 | -76.16454 | 6389 ft | 128 kts | 224° |
| 2026-05-08 00:41 | 35.41786 | -76.17063 | 6392 ft | 127 kts | 224° |
| 2026-05-08 00:41 | 35.41051 | -76.17670 | 6392 ft | 127 kts | 224° |
| 2026-05-08 00:41 | 35.40326 | -76.18267 | 6389 ft | 127 kts | 224° |
| 2026-05-08 00:41 | 35.39593 | -76.18870 | 6391 ft | 127 kts | 224° |
| 2026-05-08 00:42 | 35.38863 | -76.19472 | 6391 ft | 126 kts | 224° |
| 2026-05-08 00:42 | 35.38133 | -76.20073 | 6394 ft | 126 kts | 224° |
| 2026-05-08 00:42 | 35.37402 | -76.20675 | 6394 ft | 127 kts | 224° |
| 2026-05-08 00:42 | 35.36669 | -76.21279 | 6397 ft | 127 kts | 224° |
| 2026-05-08 00:43 | 35.35932 | -76.21886 | 6397 ft | 128 kts | 224° |
| 2026-05-08 00:43 | 35.35197 | -76.22491 | 6393 ft | 127 kts | 224° |
| 2026-05-08 00:43 | 35.34462 | -76.23094 | 6395 ft | 127 kts | 224° |
| 2026-05-08 00:43 | 35.33730 | -76.23697 | 6394 ft | 127 kts | 224° |
| 2026-05-08 00:44 | 35.33247 | -76.24095 | 6395 ft | 127 kts | 224° |
| 2026-05-08 00:44 | 35.32515 | -76.24697 | 6396 ft | 127 kts | 224° |
| 2026-05-08 00:44 | 35.31781 | -76.25300 | 6396 ft | 127 kts | 224° |
| 2026-05-08 00:44 | 35.30806 | -76.26100 | 6395 ft | 128 kts | 224° |
| 2026-05-08 00:45 | 35.30068 | -76.26707 | 6398 ft | 128 kts | 224° |
| 2026-05-08 00:45 | 35.29330 | -76.27312 | 6395 ft | 128 kts | 224° |
| 2026-05-08 00:45 | 35.28840 | -76.27716 | 6393 ft | 128 kts | 224° |
| 2026-05-08 00:45 | 35.28104 | -76.28322 | 6391 ft | 127 kts | 224° |
| 2026-05-08 00:46 | 35.27368 | -76.28925 | 6393 ft | 127 kts | 224° |
| 2026-05-08 00:46 | 35.26634 | -76.29528 | 6393 ft | 127 kts | 224° |
| 2026-05-08 00:46 | 35.25899 | -76.30129 | 6395 ft | 127 kts | 224° |
| 2026-05-08 00:46 | 35.25164 | -76.30732 | 6392 ft | 127 kts | 224° |
| 2026-05-08 00:47 | 35.24433 | -76.31334 | 6392 ft | 127 kts | 224° |
| 2026-05-08 00:47 | 35.23701 | -76.31934 | 6392 ft | 126 kts | 224° |
| 2026-05-08 00:47 | 35.22970 | -76.32534 | 6391 ft | 127 kts | 224° |
| 2026-05-08 00:47 | 35.22236 | -76.33135 | 6395 ft | 127 kts | 224° |
| 2026-05-08 00:48 | 35.21502 | -76.33735 | 6395 ft | 127 kts | 224° |
| 2026-05-08 00:48 | 35.20765 | -76.34339 | 6395 ft | 127 kts | 224° |
| 2026-05-08 00:48 | 35.20029 | -76.34942 | 6397 ft | 127 kts | 224° |
| 2026-05-08 00:48 | 35.19291 | -76.35548 | 6398 ft | 128 kts | 224° |
| 2026-05-08 00:49 | 35.18552 | -76.36154 | 6399 ft | 128 kts | 223° |
| 2026-05-08 00:49 | 35.17808 | -76.36759 | 6391 ft | 128 kts | 223° |
| 2026-05-08 00:49 | 35.17066 | -76.37368 | 6390 ft | 128 kts | 224° |
| 2026-05-08 00:49 | 35.16334 | -76.37966 | 6388 ft | 128 kts | 224° |
| 2026-05-08 00:50 | 35.15597 | -76.38570 | 6386 ft | 128 kts | 224° |
| 2026-05-08 00:50 | 35.14860 | -76.39173 | 6388 ft | 127 kts | 224° |
| 2026-05-08 00:50 | 35.14124 | -76.39776 | 6391 ft | 127 kts | 224° |
| 2026-05-08 00:50 | 35.13389 | -76.40375 | 6390 ft | 127 kts | 224° |
| 2026-05-08 00:51 | 35.12658 | -76.40972 | 6392 ft | 127 kts | 224° |
| 2026-05-08 00:51 | 35.11925 | -76.41572 | 6391 ft | 127 kts | 224° |
| 2026-05-08 00:51 | 35.11193 | -76.42170 | 6389 ft | 127 kts | 224° |
| 2026-05-08 00:51 | 35.10459 | -76.42773 | 6390 ft | 127 kts | 224° |
| 2026-05-08 00:52 | 35.09722 | -76.43373 | 6394 ft | 127 kts | 224° |
| 2026-05-08 00:52 | 35.08988 | -76.43971 | 6394 ft | 127 kts | 224° |
| 2026-05-08 00:52 | 35.08249 | -76.44574 | 6393 ft | 128 kts | 224° |
| 2026-05-08 00:52 | 35.07510 | -76.45175 | 6389 ft | 127 kts | 224° |
| 2026-05-08 00:53 | 35.06784 | -76.45769 | 6388 ft | 127 kts | 224° |
| 2026-05-08 00:53 | 35.06052 | -76.46367 | 6389 ft | 127 kts | 224° |
| 2026-05-08 00:53 | 35.05320 | -76.46964 | 6389 ft | 126 kts | 224° |
| 2026-05-08 00:53 | 35.04587 | -76.47563 | 6393 ft | 127 kts | 224° |
| 2026-05-08 00:54 | 35.03848 | -76.48164 | 6391 ft | 128 kts | 224° |
| 2026-05-08 00:54 | 35.03106 | -76.48769 | 6390 ft | 128 kts | 224° |
| 2026-05-08 00:54 | 35.02360 | -76.49377 | 6386 ft | 129 kts | 224° |
| 2026-05-08 00:54 | 35.01618 | -76.49981 | 6379 ft | 128 kts | 224° |
| 2026-05-08 00:55 | 35.00877 | -76.50584 | 6386 ft | 128 kts | 224° |
| 2026-05-08 00:55 | 35.00139 | -76.51183 | 6384 ft | 129 kts | 225° |
| 2026-05-08 00:55 | 34.99386 | -76.51803 | 6296 ft | 134 kts | 224° |
| 2026-05-08 00:55 | 34.98597 | -76.52448 | 6163 ft | 139 kts | 223° |
| 2026-05-08 00:56 | 34.97779 | -76.53108 | 6036 ft | 142 kts | 223° |
| 2026-05-08 00:56 | 34.96947 | -76.53782 | 5915 ft | 145 kts | 223° |
| 2026-05-08 00:56 | 34.96105 | -76.54467 | 5792 ft | 146 kts | 223° |
| 2026-05-08 00:56 | 34.95254 | -76.55160 | 5668 ft | 148 kts | 223° |
| 2026-05-08 00:57 | 34.94395 | -76.55860 | 5542 ft | 149 kts | 223° |
| 2026-05-08 00:57 | 34.93525 | -76.56565 | 5417 ft | 151 kts | 223° |
| 2026-05-08 00:57 | 34.92648 | -76.57276 | 5295 ft | 152 kts | 223° |
| 2026-05-08 00:57 | 34.91767 | -76.57993 | 5175 ft | 152 kts | 223° |
| 2026-05-08 00:58 | 34.90883 | -76.58711 | 5054 ft | 153 kts | 223° |
| 2026-05-08 00:58 | 34.90009 | -76.59418 | 4928 ft | 150 kts | 223° |
| 2026-05-08 00:58 | 34.89159 | -76.60105 | 4803 ft | 144 kts | 224° |
| 2026-05-08 00:58 | 34.88335 | -76.60778 | 4683 ft | 141 kts | 224° |
| 2026-05-08 00:59 | 34.87517 | -76.61448 | 4480 ft | 144 kts | 223° |
| 2026-05-08 00:59 | 34.86669 | -76.62135 | 4247 ft | 148 kts | 223° |
| 2026-05-08 00:59 | 34.85809 | -76.62832 | 4018 ft | 149 kts | 222° |
| 2026-05-08 00:59 | 34.84942 | -76.63533 | 3785 ft | 150 kts | 221° |
| 2026-05-08 01:00 | 34.84066 | -76.64241 | 3551 ft | 152 kts | 220° |
| 2026-05-08 01:00 | 34.83188 | -76.64951 | 3340 ft | 151 kts | 221° |
| 2026-05-08 01:00 | 34.82312 | -76.65669 | 3127 ft | 152 kts | 220° |
| 2026-05-08 01:00 | 34.81420 | -76.66380 | 2905 ft | 154 kts | 220° |
| 2026-05-08 01:01 | 34.80535 | -76.67105 | 2683 ft | 156 kts | 219° |
| 2026-05-08 01:01 | 34.79618 | -76.67845 | 2467 ft | 160 kts | 219° |
| 2026-05-08 01:01 | 34.78683 | -76.68594 | 2242 ft | 162 kts | 219° |
| 2026-05-08 01:01 | 34.77743 | -76.69357 | 2043 ft | 163 kts | 217° |
| 2026-05-08 01:02 | 34.76813 | -76.70112 | 1937 ft | 159 kts | 221° |
| 2026-05-08 01:02 | 34.75835 | -76.70673 | 1904 ft | 152 kts | 201° |
| 2026-05-08 01:02 | 34.74817 | -76.70703 | 1886 ft | 149 kts | 169° |
| 2026-05-08 01:02 | 34.73866 | -76.70316 | 1868 ft | 139 kts | 168° |
| 2026-05-08 01:03 | 34.72936 | -76.69995 | 1667 ft | 140 kts | 170° |
| 2026-05-08 01:03 | 34.71977 | -76.69670 | 1457 ft | 142 kts | 164° |
| 2026-05-08 01:03 | 34.71203 | -76.69087 | 1419 ft | 123 kts | 134° |
| 2026-05-08 01:03 | 34.70876 | -76.68275 | 1310 ft | 94 kts | 81° |
| 2026-05-08 01:04 | 34.71108 | -76.67586 | 1015 ft | 83 kts | 49° |
| 2026-05-08 01:04 | 34.71486 | -76.67104 | 665 ft | 75 kts | 38° |
| 2026-05-08 01:04 | 34.71871 | -76.66737 | 365 ft | 63 kts | 33° |
| 2026-05-08 01:04 | 34.72236 | -76.66470 | 214 ft | 58 kts | 20° |
| 2026-05-08 01:05 | 34.72586 | -76.66282 | 145 ft | 57 kts | 23° |
| 2026-05-08 01:05 | 34.72962 | -76.66067 | 40 ft | 58 kts | 24° |
| 2026-05-08 01:05 | 34.73235 | -76.65916 | 15 ft | 31 kts | 25° |
| 2026-05-08 01:05 | 34.73397 | -76.65820 | 13 ft | 22 kts | 26° |
| 2026-05-08 01:06 | 34.73529 | -76.65748 | 13 ft | 21 kts | 27° |
| 2026-05-08 01:06 | 34.73656 | -76.65669 | 14 ft | 12 kts | 36° |
| 2026-05-08 01:06 | 34.73669 | -76.65585 | 14 ft | 12 kts | 68° |
| 2026-05-08 01:06 | 34.73645 | -76.65538 | 14 ft | 10 kts | 169° |
| 2026-05-08 01:07 | 34.73556 | -76.65527 | 14 ft | 15 kts | 178° |
| 2026-05-08 01:07 | 34.73433 | -76.65505 | 13 ft | 20 kts | 172° |
| 2026-05-08 01:07 | 34.73362 | -76.65497 | 13 ft | 0 kts | 170° |